createdAt,value
2023-01-27T00:01:31.221Z,1.62
2023-01-27T00:04:00.546Z,1.02
2023-01-27T00:06:29.787Z,1.17
2023-01-27T00:08:58.804Z,1.33
2023-01-27T00:11:45.400Z,1.27
2023-01-27T00:14:14.629Z,1.51
2023-01-27T00:16:44.969Z,1.16
2023-01-27T00:19:14.137Z,1.26
2023-01-27T00:22:00.399Z,1.29
2023-01-27T00:24:38.075Z,1.52
2023-01-27T00:27:09.741Z,1.49
2023-01-27T00:29:41.902Z,1.57
2023-01-27T00:32:30.344Z,1.42
2023-01-27T00:34:59.772Z,1.46
2023-01-27T00:37:28.713Z,1.21
2023-01-27T00:39:57.800Z,1.11
2023-01-27T00:42:27.448Z,1.51
2023-01-27T00:45:14.024Z,1.37
2023-01-27T00:47:45.408Z,1.55
2023-01-27T00:50:14.940Z,1.28
2023-01-27T00:52:43.988Z,0.66
2023-01-27T00:55:15.994Z,1.10
2023-01-27T00:57:46.096Z,0.24
2023-01-27T01:00:17.205Z,0.92
2023-01-27T01:02:48.069Z,0.77
2023-01-27T01:05:17.071Z,1.26
2023-01-27T01:07:48.433Z,1.04
2023-01-27T01:10:18.142Z,1.38
2023-01-27T01:12:48.312Z,1.23
2023-01-27T05:12:20.693Z,0.45
2023-01-27T05:15:01.544Z,0.72
2023-01-27T05:17:32.752Z,0.69
2023-01-27T05:20:01.848Z,0.67
2023-01-27T05:22:31.649Z,0.50
2023-01-27T05:25:01.161Z,0.60
2023-01-27T05:27:31.687Z,0.37
2023-01-27T05:30:03.729Z,0.71
2023-01-27T05:32:32.952Z,0.43
2023-01-27T05:35:02.702Z,0.63
2023-01-27T05:37:38.442Z,0.67
2023-01-27T05:40:08.768Z,0.62
2023-01-27T05:42:42.663Z,0.60
2023-01-27T05:45:12.508Z,0.39
2023-01-27T05:47:43.094Z,0.59
2023-01-27T05:50:12.785Z,0.72
2023-01-27T05:52:44.042Z,0.93
2023-01-27T05:57:58.473Z,0.56
2023-01-27T06:00:28.232Z,0.66
2023-01-27T06:03:00.424Z,0.67
2023-01-27T06:05:30.222Z,0.53
2023-01-27T06:07:59.798Z,0.20
2023-01-27T06:10:29.523Z,0.61
2023-01-27T06:13:00.864Z,0.33
2023-01-27T06:15:38.036Z,0.63
2023-01-27T06:18:07.275Z,0.48
2023-01-27T06:20:38.881Z,0.73
2023-01-27T06:23:08.699Z,0.28
2023-01-27T06:25:40.999Z,0.35
2023-01-27T06:28:28.247Z,0.70
2023-01-27T06:31:09.016Z,0.43
2023-01-27T06:33:38.573Z,-0.14
2023-01-27T06:36:14.230Z,0.46
2023-01-27T06:38:44.212Z,0.42
2023-01-27T06:41:14.667Z,0.49
2023-01-27T06:43:48.320Z,0.32
2023-01-27T06:46:17.813Z,0.43
2023-01-27T06:48:48.980Z,0.33
2023-01-27T06:51:18.207Z,0.78
2023-01-27T06:53:47.313Z,0.42
2023-01-27T06:56:17.599Z,0.69
2023-01-27T06:58:48.368Z,0.63
2023-01-27T07:01:22.099Z,0.55
2023-01-27T07:03:52.092Z,0.41
2023-01-27T07:06:21.465Z,0.57
2023-01-27T07:08:52.608Z,0.24
2023-01-27T07:11:25.594Z,0.88
2023-01-27T07:13:58.778Z,0.88
2023-01-27T07:16:28.008Z,0.84
2023-01-27T07:18:58.492Z,0.91
2023-01-27T07:21:28.905Z,1.22
2023-01-27T07:23:58.274Z,0.18
2023-01-27T07:26:27.494Z,0.10
2023-01-27T07:28:59.942Z,0.60
2023-01-27T07:31:29.286Z,0.50
2023-01-27T07:33:59.660Z,0.85
2023-01-27T07:36:28.970Z,0.81
2023-01-27T07:39:03.482Z,1.20
2023-01-27T07:41:39.869Z,1.50
2023-01-27T07:44:17.517Z,1.30
2023-01-27T07:46:52.695Z,1.45
2023-01-27T07:49:22.059Z,0.76
2023-01-27T07:51:56.303Z,-0.49
2023-01-27T07:54:25.453Z,-0.84
2023-01-27T07:57:00.786Z,0.98
2023-01-27T07:59:31.429Z,1.33
2023-01-27T08:02:03.570Z,1.12
2023-01-27T08:04:40.180Z,1.11
2023-01-27T08:07:20.865Z,1.06
2023-01-27T08:09:50.407Z,1.29
2023-01-27T08:12:19.524Z,1.45
2023-01-27T08:14:50.150Z,1.22
2023-01-27T08:17:30.520Z,0.81
2023-01-27T08:20:04.007Z,0.84
2023-01-27T08:22:34.720Z,0.70
2023-01-27T08:25:08.817Z,0.77
2023-01-27T08:27:40.240Z,0.34
2023-01-27T08:31:07.812Z,1.19
2023-01-27T08:33:43.263Z,1.21
2023-01-27T08:36:18.205Z,1.26
2023-01-27T08:38:49.468Z,1.04
2023-01-27T08:41:25.238Z,0.90
2023-01-27T08:44:04.134Z,1.49
2023-01-27T08:46:34.353Z,2.36
2023-01-27T08:49:05.613Z,2.89
2023-01-27T08:51:38.079Z,0.72
2023-01-27T08:54:10.929Z,2.56
2023-01-27T08:56:40.281Z,2.84
2023-01-27T08:59:10.907Z,2.51
2023-01-27T09:01:41.681Z,2.11
2023-01-27T09:04:15.296Z,2.71
2023-01-27T09:06:45.255Z,2.37
2023-01-27T09:09:18.185Z,1.80
2023-01-27T09:11:57.288Z,2.17
2023-01-27T09:14:26.939Z,2.70
2023-01-27T09:16:58.839Z,2.43
2023-01-27T09:19:35.477Z,1.84
2023-01-27T09:22:05.921Z,2.10
2023-01-27T09:24:48.564Z,1.84
2023-01-27T09:27:19.215Z,2.38
2023-01-27T09:29:51.977Z,2.30
2023-01-27T09:32:21.206Z,2.80
2023-01-27T09:34:51.673Z,2.68
2023-01-27T09:37:21.150Z,2.55
2023-01-27T09:39:54.117Z,1.93
2023-01-27T09:42:45.295Z,2.48
2023-01-27T09:45:26.471Z,2.19
2023-01-27T09:48:15.807Z,3.01
2023-01-27T09:50:49.720Z,2.98
2023-01-27T09:53:57.764Z,2.89
2023-01-27T09:56:36.095Z,2.44
2023-01-27T09:59:20.528Z,2.67
2023-01-27T10:02:02.722Z,3.33
2023-01-27T10:04:53.485Z,3.16
2023-01-27T10:07:54.224Z,3.69
2023-01-27T10:10:39.583Z,1.44
2023-01-27T10:13:19.451Z,2.45
2023-01-27T10:16:05.130Z,2.29
2023-01-27T10:18:52.298Z,3.05
2023-01-27T10:21:31.770Z,3.68
2023-01-27T10:24:13.698Z,3.06
2023-01-27T10:26:48.149Z,2.04
2023-01-27T10:29:25.426Z,2.43
2023-01-27T10:31:59.004Z,2.20
2023-01-27T10:34:37.159Z,2.03
2023-01-27T13:18:08.338Z,1.36
2023-01-27T13:20:43.677Z,1.89
2023-01-27T13:23:24.705Z,0.11
2023-01-27T13:26:04.403Z,0.72
2023-01-27T13:28:51.741Z,0.72
2023-01-27T13:31:33.304Z,-0.24
2023-01-27T13:34:12.117Z,1.40
2023-01-27T13:36:47.771Z,1.67
2023-01-27T13:39:20.382Z,1.68
2023-01-27T13:41:58.350Z,1.48
2023-01-27T13:44:33.799Z,1.64
2023-01-27T13:47:07.850Z,0.48
2023-01-27T13:49:44.265Z,1.46
2023-01-27T13:52:14.017Z,1.68
2023-01-27T13:56:10.836Z,1.14
2023-01-27T13:58:52.968Z,0.52
2023-01-27T14:01:29.761Z,1.31
2023-01-27T14:04:29.961Z,0.98
2023-01-27T14:07:12.128Z,1.26
2023-01-27T14:09:53.165Z,1.19
2023-01-27T14:12:38.491Z,1.38
2023-01-27T14:15:24.544Z,1.12
2023-01-27T14:18:01.295Z,1.28
2023-01-27T14:20:56.877Z,1.35
2023-01-27T14:23:45.855Z,1.27
2023-01-27T14:26:34.020Z,1.01
2023-01-27T14:29:12.476Z,1.22
2023-01-27T14:31:51.758Z,1.28
2023-01-27T14:34:42.047Z,1.32
2023-01-27T14:37:23.182Z,1.20
2023-01-27T14:40:15.490Z,0.87
2023-01-27T14:42:57.549Z,0.38
2023-01-27T14:45:31.895Z,0.82
2023-01-27T14:48:09.547Z,0.99
2023-01-27T14:50:49.897Z,0.80
2023-01-27T14:53:34.954Z,0.97
2023-01-27T14:56:13.536Z,0.45
2023-01-27T14:58:51.550Z,0.86
2023-01-27T15:01:29.342Z,1.00
2023-01-27T15:04:37.646Z,1.11
2023-01-27T15:07:18.257Z,1.19
2023-01-27T15:10:06.625Z,0.93
2023-01-27T15:12:48.825Z,0.99
2023-01-27T15:15:58.641Z,0.98
2023-01-27T15:19:14.866Z,1.08
2023-01-27T15:22:47.837Z,1.19
2023-01-27T15:25:54.307Z,1.06
2023-01-27T15:28:40.091Z,0.71
2023-01-27T15:31:26.581Z,-0.45
2023-01-27T15:33:58.897Z,0.52
2023-01-27T15:37:13.813Z,-0.58
2023-01-27T15:40:49.451Z,1.06
2023-01-27T15:44:30.278Z,0.88
2023-01-27T15:47:12.613Z,0.80
2023-01-27T15:54:35.030Z,0.68
2023-01-27T15:57:06.805Z,0.28
2023-01-27T15:59:58.868Z,0.88
2023-01-27T16:02:33.328Z,0.56
2023-01-27T16:05:17.630Z,0.81
2023-01-27T16:07:55.284Z,0.99
2023-01-27T16:10:29.042Z,0.70
2023-01-27T16:13:26.859Z,0.50
2023-01-27T16:16:42.120Z,0.66
2023-01-27T16:19:25.773Z,0.48
2023-01-27T16:22:02.389Z,-0.40
2023-01-27T16:24:41.293Z,0.51
2023-01-27T16:27:26.539Z,0.51
2023-01-27T16:30:00.908Z,0.19
2023-01-27T16:32:56.004Z,-0.06
2023-01-27T16:35:33.024Z,0.47
2023-01-27T16:38:12.301Z,0.37
2023-01-27T16:41:14.392Z,0.12
2023-01-27T16:43:52.568Z,-0.27
2023-01-27T16:46:35.747Z,0.72
2023-01-27T16:49:15.472Z,0.63
2023-01-27T16:51:48.168Z,0.41
2023-01-27T16:54:25.141Z,0.26
2023-01-27T16:56:54.848Z,0.37
2023-01-27T16:59:38.072Z,0.55
2023-01-27T17:02:19.233Z,0.27
2023-01-27T17:04:56.350Z,0.34
2023-01-27T17:07:27.535Z,0.50
2023-01-27T17:10:01.838Z,0.19
2023-01-27T17:12:40.535Z,-0.11
2023-01-27T17:15:19.738Z,0.23
2023-01-27T17:17:59.105Z,0.42
2023-01-27T17:20:33.293Z,0.18
2023-01-27T17:23:08.174Z,-0.61
2023-01-27T17:25:42.927Z,-0.67
2023-01-27T17:28:19.853Z,-0.30
2023-01-27T17:30:52.847Z,-0.82
2023-01-27T17:33:23.048Z,0.10
2023-01-27T17:36:25.282Z,-0.07
2023-01-27T17:38:58.393Z,-0.28
2023-01-27T17:41:31.443Z,-0.32
2023-01-27T17:44:05.313Z,-0.24
2023-01-27T17:46:52.479Z,-1.07
2023-01-27T17:49:22.652Z,-0.51
2023-01-27T17:51:56.515Z,0.19
2023-01-27T17:54:33.801Z,0.02
2023-01-27T17:57:09.734Z,-0.51
2023-01-27T17:59:45.142Z,0.04
2023-01-27T18:02:21.282Z,0.27
2023-01-27T18:04:51.731Z,0.37
2023-01-27T18:07:25.160Z,-0.05
2023-01-27T18:10:00.565Z,-0.29
2023-01-27T18:12:41.285Z,0.34
2023-01-27T18:15:47.085Z,0.35
2023-01-27T18:18:26.361Z,0.17
2023-01-27T18:21:06.871Z,0.27
2023-01-27T18:23:48.357Z,-0.30
2023-01-27T18:26:29.180Z,0.12
2023-01-27T18:29:05.196Z,0.17
2023-01-27T18:31:45.526Z,0.26
2023-01-27T18:34:25.067Z,0.04
2023-01-27T18:36:57.444Z,0.36
2023-01-27T18:39:34.829Z,-0.08
2023-01-27T18:42:13.251Z,-0.09
2023-01-27T18:44:43.109Z,-0.06
2023-01-27T18:47:28.885Z,0.10
2023-01-27T18:50:07.888Z,0.50
2023-01-27T18:52:47.360Z,0.72
2023-01-27T18:55:21.690Z,0.35
2023-01-27T18:58:02.767Z,0.09
2023-01-27T19:00:40.102Z,0.42
2023-01-27T19:03:21.883Z,0.76
2023-01-27T19:05:52.594Z,0.50
2023-01-27T19:08:26.266Z,-0.35
2023-01-27T19:10:56.263Z,0.07
2023-01-27T19:13:44.168Z,-0.74
2023-01-27T19:16:21.543Z,-0.15
2023-01-27T19:18:55.502Z,-0.40
2023-01-27T19:21:25.122Z,0.02
2023-01-27T19:23:57.108Z,-0.13
2023-01-27T19:26:27.809Z,0.36
2023-01-27T19:29:00.522Z,-0.84
2023-01-27T19:31:30.768Z,0.21
2023-01-27T19:34:03.324Z,0.19
2023-01-27T19:36:38.479Z,0.24
2023-01-27T19:39:14.827Z,0.13
2023-01-27T19:45:40.023Z,-0.39
2023-01-27T19:48:18.059Z,-1.11
2023-01-27T19:51:11.037Z,0.20
2023-01-27T19:54:00.188Z,-0.81
2023-01-27T19:59:24.269Z,0.66
2023-01-27T20:01:57.015Z,0.71
2023-01-27T20:04:43.095Z,-0.75
2023-01-27T20:07:16.064Z,0.29
2023-01-27T20:09:45.745Z,0.36
2023-01-27T20:12:18.351Z,0.24
2023-01-27T20:14:51.122Z,-0.17
2023-01-27T20:17:22.131Z,0.35
2023-01-27T20:19:56.349Z,0.38
2023-01-27T20:22:26.520Z,0.34
2023-01-27T20:24:58.261Z,0.14
2023-01-27T20:27:28.999Z,-0.14
2023-01-27T20:29:58.383Z,-0.12
2023-01-27T20:32:31.475Z,-0.20
2023-01-27T20:35:04.520Z,-0.17
2023-01-27T20:37:34.235Z,-1.48
2023-01-27T20:40:09.463Z,-0.48
2023-01-27T20:42:42.599Z,-1.23
2023-01-27T20:45:13.900Z,-0.60
2023-01-27T20:47:54.216Z,-0.41
2023-01-27T20:50:27.930Z,-0.77
2023-01-27T22:15:53.725Z,-0.41
2023-01-27T22:18:23.549Z,-0.35
2023-01-27T22:20:52.909Z,-0.41
2023-01-27T22:23:24.733Z,-0.73
2023-01-27T22:25:55.038Z,-0.43
2023-01-27T22:28:26.610Z,-2.04
2023-01-27T22:31:02.626Z,-0.67
2023-01-27T22:33:32.565Z,-2.05
2023-01-27T22:36:02.641Z,-2.40
2023-01-27T22:38:31.845Z,-2.35
2023-01-27T22:41:01.030Z,-2.58
2023-01-27T22:43:30.166Z,-2.70
2023-01-27T22:46:03.237Z,-2.80
2023-01-27T22:48:32.577Z,-2.61
2023-01-27T22:51:04.818Z,-2.53
2023-01-27T22:53:34.239Z,-2.38
2023-01-27T22:56:05.046Z,-2.69
2023-01-27T22:58:34.266Z,-2.57
2023-01-27T23:01:08.587Z,-2.60
2023-01-27T23:03:39.071Z,-2.42
2023-01-27T23:06:09.528Z,-2.70
2023-01-27T23:08:38.921Z,-2.52
2023-01-27T23:11:08.518Z,-2.34
2023-01-27T23:13:37.531Z,-2.37
2023-01-27T23:16:10.124Z,-2.47
2023-01-27T23:18:39.449Z,-2.50
2023-01-27T23:21:09.750Z,-2.58
2023-01-27T23:23:39.058Z,-2.40
2023-01-27T23:26:09.276Z,-2.51
2023-01-27T23:28:39.448Z,-2.69
2023-01-27T23:31:12.225Z,-2.49
2023-01-27T23:33:43.151Z,-2.70
2023-01-27T23:36:13.045Z,-2.52
2023-01-27T23:38:42.251Z,-2.74
2023-01-27T23:41:18.331Z,-2.77
2023-01-27T23:43:52.428Z,-2.65
2023-01-27T23:46:23.558Z,-2.73
2023-01-27T23:48:53.023Z,-2.71
2023-01-27T23:51:23.186Z,-2.50
2023-01-27T23:53:52.660Z,-2.48
2023-01-27T23:56:22.061Z,-2.48
2023-01-27T23:58:51.545Z,-2.34
